createdAt,value
2023-02-06T00:00:51.395Z,103524.72
2023-02-06T00:03:18.072Z,103414.25
2023-02-06T00:05:44.445Z,103473.94
2023-02-06T00:08:10.801Z,103469.59
2023-02-06T00:10:37.178Z,103439.41
2023-02-06T00:13:03.586Z,103500.59
2023-02-06T00:15:29.942Z,103435.44
2023-02-06T00:17:56.340Z,103484.00
2023-02-06T00:20:22.696Z,103468.75
2023-02-06T00:22:49.020Z,103479.97
2023-02-06T00:25:15.381Z,103469.91
2023-02-06T00:27:41.715Z,103478.50
2023-02-06T00:30:08.351Z,103487.84
2023-02-06T00:32:35.212Z,103473.56
2023-02-06T00:35:01.718Z,103439.72
2023-02-06T00:37:28.048Z,103455.81
2023-02-06T00:39:54.561Z,103441.03
2023-02-06T00:42:21.114Z,103466.44
2023-02-06T00:44:47.462Z,103460.88
2023-02-06T00:47:13.888Z,103458.84
2023-02-06T00:49:40.213Z,103455.84
2023-02-06T00:52:06.733Z,103337.25
2023-02-06T00:54:33.105Z,103466.84
2023-02-06T00:56:59.488Z,103464.84
2023-02-06T00:59:25.989Z,103446.25
2023-02-06T01:01:52.333Z,103442.75
2023-02-06T01:04:18.693Z,103473.34
2023-02-06T01:06:45.050Z,103405.16
2023-02-06T01:09:11.439Z,103458.91
2023-02-06T01:11:37.793Z,103410.59
2023-02-06T01:14:04.202Z,103421.97
2023-02-06T01:16:30.687Z,103257.00
2023-02-06T01:18:57.040Z,103463.59
2023-02-06T01:21:24.960Z,103425.22
2023-02-06T01:23:53.691Z,103472.03
2023-02-06T01:26:23.326Z,103448.28
2023-02-06T01:28:50.498Z,103464.28
2023-02-06T01:31:21.502Z,103492.59
2023-02-06T01:33:48.923Z,103446.41
2023-02-06T01:36:16.777Z,103494.38
2023-02-06T01:38:43.372Z,103405.28
2023-02-06T01:41:11.484Z,103481.75
2023-02-06T01:43:44.540Z,103499.88
2023-02-06T01:46:11.076Z,103500.38
2023-02-06T01:48:42.713Z,103444.09
2023-02-06T01:51:14.504Z,103471.50
2023-02-06T01:53:44.311Z,103447.00
2023-02-06T01:56:11.045Z,103486.13
2023-02-06T01:58:41.309Z,103437.88
2023-02-06T02:01:08.643Z,103492.66
2023-02-06T02:03:39.017Z,103486.56
2023-02-06T02:06:10.075Z,103471.41
2023-02-06T02:08:42.492Z,103431.31
2023-02-06T02:11:11.863Z,103445.19
2023-02-06T02:13:38.934Z,103389.31
2023-02-06T02:16:43.744Z,103485.00
2023-02-06T02:19:37.195Z,103431.06
2023-02-06T02:22:22.248Z,103489.09
2023-02-06T02:25:05.986Z,103487.22
2023-02-06T02:27:46.938Z,103486.94
2023-02-06T02:30:35.158Z,103487.25
2023-02-06T02:33:37.173Z,103487.41
2023-02-06T02:36:28.566Z,103496.16
2023-02-06T02:39:26.007Z,103492.00
2023-02-06T02:42:03.888Z,103364.91
2023-02-06T02:44:52.622Z,103496.00
2023-02-06T02:47:23.687Z,103504.56
2023-02-06T02:49:50.378Z,103488.28
2023-02-06T02:52:16.726Z,103438.13
2023-02-06T02:54:43.107Z,103479.38
2023-02-06T02:57:14.599Z,103368.69
2023-02-06T02:59:45.429Z,103411.81
2023-02-06T03:02:21.941Z,103459.94
2023-02-06T03:04:53.015Z,103484.19
2023-02-06T03:07:37.608Z,103490.66
2023-02-06T03:10:37.496Z,103481.19
2023-02-06T03:13:16.200Z,103447.97
2023-02-06T03:16:03.044Z,103480.38
2023-02-06T03:18:52.579Z,103499.59
2023-02-06T03:21:21.821Z,103441.56
2023-02-06T03:23:52.760Z,103402.47
2023-02-06T03:26:23.136Z,103474.81
2023-02-06T03:28:52.946Z,103490.06
2023-02-06T03:31:26.827Z,103477.16
2023-02-06T03:34:03.440Z,103447.41
2023-02-06T03:36:29.912Z,103474.41
2023-02-06T03:38:56.381Z,103434.00
2023-02-06T03:41:28.048Z,103457.28
2023-02-06T03:43:55.598Z,103450.47
2023-02-06T03:46:24.178Z,103457.84
2023-02-06T03:48:55.716Z,103480.41
2023-02-06T03:51:28.308Z,103497.88
2023-02-06T03:53:58.462Z,103449.50
2023-02-06T03:56:34.723Z,103479.75
2023-02-06T03:59:01.236Z,103363.84
2023-02-06T04:01:27.914Z,103452.59
2023-02-06T04:03:54.690Z,103475.72
2023-02-06T04:06:21.444Z,103443.19
2023-02-06T04:08:47.815Z,103448.03
2023-02-06T04:11:14.135Z,103406.16
2023-02-06T04:13:40.501Z,103434.81
2023-02-06T04:16:06.832Z,103448.22
2023-02-06T04:18:33.260Z,103430.84
2023-02-06T04:21:05.282Z,103436.88
2023-02-06T04:23:31.805Z,103479.63
2023-02-06T04:25:58.176Z,103414.03
2023-02-06T04:28:24.667Z,103390.41
2023-02-06T04:30:51.088Z,103421.97
2023-02-06T04:33:18.091Z,103425.53
2023-02-06T04:35:44.451Z,103440.44
2023-02-06T04:38:10.793Z,103470.38
2023-02-06T04:40:37.103Z,103473.03
2023-02-06T04:43:03.446Z,103489.50
2023-02-06T04:45:29.811Z,103388.78
2023-02-06T04:47:57.928Z,103485.59
2023-02-06T04:50:26.012Z,103504.31
2023-02-06T04:52:52.349Z,103470.78
2023-02-06T04:55:18.829Z,103474.72
2023-02-06T04:57:45.160Z,103451.28
2023-02-06T05:00:12.138Z,103451.56
2023-02-06T05:02:39.736Z,103467.13
2023-02-06T05:05:08.151Z,103435.28
2023-02-06T05:07:35.311Z,103340.25
2023-02-06T05:10:02.272Z,103504.66
2023-02-06T05:12:31.260Z,103474.72
2023-02-06T05:14:57.620Z,103472.97
2023-02-06T05:17:24.029Z,103449.44
2023-02-06T05:19:50.458Z,103451.13
2023-02-06T05:22:16.928Z,103479.25
2023-02-06T05:24:43.322Z,103505.38
2023-02-06T05:27:10.060Z,103457.75
2023-02-06T05:29:36.500Z,103411.22
2023-02-06T05:32:02.867Z,103477.72
2023-02-06T05:34:29.237Z,103397.22
2023-02-06T05:36:55.710Z,103475.84
2023-02-06T05:39:22.172Z,103467.13
2023-02-06T05:41:48.541Z,103486.56
2023-02-06T05:44:14.992Z,103471.69
2023-02-06T05:46:41.360Z,103431.41
2023-02-06T05:49:07.800Z,103444.03
2023-02-06T05:51:34.195Z,103480.97
2023-02-06T05:54:00.622Z,103515.88
2023-02-06T05:56:27.040Z,103407.97
2023-02-06T05:58:53.750Z,103409.75
2023-02-06T06:01:20.258Z,103429.88
2023-02-06T06:03:46.671Z,103497.06
2023-02-06T06:06:13.012Z,103452.44
2023-02-06T06:08:39.393Z,103464.06
2023-02-06T06:11:07.176Z,103399.16
2023-02-06T06:13:34.154Z,103491.94
2023-02-06T06:16:00.594Z,103484.38
2023-02-06T06:18:27.058Z,103460.66
2023-02-06T06:20:53.565Z,103495.69
2023-02-06T06:23:19.934Z,103470.53
2023-02-06T06:25:47.211Z,103496.16
2023-02-06T06:28:15.080Z,103497.69
2023-02-06T06:30:41.842Z,103484.28
2023-02-06T06:33:08.362Z,103493.47
2023-02-06T06:35:35.055Z,103404.09
2023-02-06T06:38:01.654Z,103462.41
2023-02-06T06:40:28.009Z,103443.50
2023-02-06T06:42:54.372Z,103467.41
2023-02-06T06:45:20.847Z,103443.13
2023-02-06T06:47:47.231Z,103476.97
2023-02-06T06:50:13.552Z,103459.28
2023-02-06T06:52:39.883Z,103447.72
2023-02-06T06:55:06.694Z,103446.25
2023-02-06T06:57:33.091Z,103453.88
2023-02-06T06:59:59.440Z,103491.94
2023-02-06T07:02:25.850Z,103480.47
2023-02-06T07:04:52.178Z,103474.38
2023-02-06T07:07:18.544Z,103465.81
2023-02-06T07:09:44.918Z,103338.78
2023-02-06T07:12:11.381Z,103414.03
2023-02-06T07:14:37.721Z,103409.22
2023-02-06T07:17:04.056Z,103445.28
2023-02-06T07:19:30.396Z,103456.19
2023-02-06T07:21:57.907Z,103456.41
2023-02-06T07:24:24.261Z,103425.94
2023-02-06T07:26:50.643Z,103445.78
2023-02-06T07:29:17.120Z,103454.34
2023-02-06T07:31:43.454Z,103364.16
2023-02-06T07:34:09.788Z,103387.75
2023-02-06T07:36:36.201Z,103423.47
2023-02-06T07:39:03.980Z,103462.88
2023-02-06T07:41:30.372Z,103432.81
2023-02-06T07:43:56.724Z,103440.59
2023-02-06T07:46:23.176Z,103308.56
2023-02-06T07:48:49.630Z,103482.13
2023-02-06T07:51:16.113Z,103477.78
2023-02-06T07:53:42.671Z,103406.78
2023-02-06T07:56:10.943Z,103358.34
2023-02-06T07:58:37.359Z,103326.66
2023-02-06T08:01:05.361Z,103474.03
2023-02-06T08:03:32.152Z,103474.53
2023-02-06T08:05:58.562Z,103320.84
2023-02-06T08:08:25.324Z,103353.06
2023-02-06T08:10:52.299Z,103489.16
2023-02-06T08:13:18.669Z,103459.63
2023-02-06T08:15:45.001Z,103470.47
2023-02-06T08:18:11.344Z,103450.09
2023-02-06T08:20:37.681Z,103423.72
2023-02-06T08:23:04.135Z,103354.97
2023-02-06T08:25:30.500Z,103337.44
2023-02-06T08:27:56.837Z,103444.97
2023-02-06T08:30:23.939Z,103463.13
2023-02-06T08:32:50.355Z,103442.31
2023-02-06T08:35:16.829Z,103341.13
2023-02-06T08:37:43.307Z,103488.03
2023-02-06T08:40:10.339Z,103452.75
2023-02-06T08:42:36.655Z,103447.56
2023-02-06T08:45:03.249Z,103466.22
2023-02-06T08:47:29.602Z,103476.34
2023-02-06T08:49:55.969Z,103450.63
2023-02-06T08:52:23.194Z,103447.13
2023-02-06T08:54:51.455Z,103475.88
2023-02-06T08:57:17.799Z,103458.38
2023-02-06T08:59:44.199Z,103439.13
2023-02-06T09:02:11.579Z,103466.91
2023-02-06T09:04:38.990Z,103368.50
2023-02-06T09:07:05.349Z,103428.47
2023-02-06T09:09:31.759Z,103436.31
2023-02-06T09:12:03.160Z,103397.94
2023-02-06T09:14:29.917Z,103436.13
2023-02-06T09:16:59.167Z,103392.00
2023-02-06T09:19:26.397Z,103446.88
2023-02-06T09:21:53.299Z,103439.16
2023-02-06T09:24:20.130Z,103449.47
2023-02-06T09:26:58.879Z,103401.25
2023-02-06T09:29:28.750Z,103454.03
2023-02-06T09:31:57.061Z,103391.00
2023-02-06T09:34:25.621Z,103432.59
2023-02-06T09:36:54.314Z,103453.34
2023-02-06T09:39:20.745Z,103454.78
2023-02-06T09:41:53.918Z,103461.91
2023-02-06T09:44:27.156Z,103435.75
2023-02-06T09:47:06.450Z,103437.03
2023-02-06T09:49:43.380Z,103459.28
2023-02-06T09:52:18.293Z,103457.44
2023-02-06T09:55:08.103Z,103441.81
2023-02-06T09:57:56.856Z,103463.38
2023-02-06T10:00:23.147Z,103476.63
2023-02-06T10:03:20.457Z,103476.91
2023-02-06T10:05:57.698Z,103480.41
2023-02-06T10:08:44.917Z,103435.41
2023-02-06T10:11:32.885Z,103485.94
2023-02-06T10:14:04.796Z,103468.53
2023-02-06T10:16:58.281Z,103459.28
2023-02-06T10:19:49.523Z,103492.13
2023-02-06T10:22:20.997Z,103455.88
2023-02-06T10:25:01.987Z,103450.03
2023-02-06T10:27:28.386Z,103481.09
2023-02-06T10:29:54.771Z,103488.41
2023-02-06T10:32:40.553Z,103495.97
2023-02-06T10:36:08.503Z,103474.16
2023-02-06T10:38:49.643Z,103485.53
2023-02-06T10:41:39.884Z,103446.53
2023-02-06T10:44:24.053Z,103471.00
2023-02-06T10:46:53.081Z,103482.56
2023-02-06T10:49:31.518Z,103475.66
2023-02-06T10:52:01.363Z,103456.22
2023-02-06T10:54:38.682Z,103466.16
2023-02-06T10:57:13.895Z,103440.84
2023-02-06T10:59:45.588Z,103402.44
2023-02-06T11:02:23.351Z,103450.34
2023-02-06T11:05:10.154Z,103427.63
2023-02-06T11:07:41.997Z,103453.44
2023-02-06T11:10:14.169Z,103462.63
2023-02-06T11:12:49.222Z,103473.44
2023-02-06T11:15:23.494Z,103430.06
2023-02-06T11:17:52.739Z,103425.50
2023-02-06T11:20:23.172Z,103441.59
2023-02-06T11:22:53.059Z,103396.09
2023-02-06T11:25:28.066Z,103445.28
2023-02-06T11:27:55.930Z,103424.59
2023-02-06T11:30:39.957Z,103438.75
2023-02-06T11:33:22.131Z,103414.91
2023-02-06T11:35:52.749Z,103437.19
2023-02-06T11:38:22.790Z,103439.78
2023-02-06T11:41:03.143Z,103430.53
2023-02-06T11:43:41.324Z,103420.66
2023-02-06T11:46:17.519Z,103423.56
2023-02-06T11:49:07.940Z,103418.44
2023-02-06T11:52:26.179Z,103409.50
2023-02-06T11:54:56.854Z,103402.88
2023-02-06T11:57:26.384Z,103379.41
2023-02-06T11:59:54.882Z,103346.53
2023-02-06T12:02:28.703Z,103399.91
2023-02-06T12:05:03.026Z,103381.38
2023-02-06T12:07:37.775Z,103408.31
2023-02-06T12:10:18.844Z,103414.97
2023-02-06T12:12:57.797Z,103389.28
2023-02-06T12:15:45.912Z,103352.84
2023-02-06T12:18:17.462Z,103406.31
2023-02-06T12:21:27.326Z,103402.53
2023-02-06T12:23:58.883Z,103406.31
2023-02-06T12:26:29.049Z,103368.38
2023-02-06T12:29:09.560Z,103401.75
2023-02-06T12:31:47.510Z,103385.31
2023-02-06T12:34:19.487Z,103345.03
2023-02-06T12:37:14.422Z,103357.81
2023-02-06T12:39:43.076Z,103344.50
2023-02-06T12:42:31.892Z,103377.53
2023-02-06T12:45:19.475Z,103370.56
2023-02-06T12:48:15.190Z,103344.75
2023-02-06T12:50:47.831Z,103376.72
2023-02-06T12:53:28.222Z,103348.53
2023-02-06T12:56:13.923Z,103361.47
2023-02-06T12:58:43.184Z,103379.47
2023-02-06T13:01:34.577Z,103366.81
2023-02-06T13:04:05.687Z,103349.84
2023-02-06T13:06:42.718Z,103317.59
2023-02-06T13:09:20.471Z,103334.69
2023-02-06T13:11:47.555Z,103354.94
2023-02-06T13:14:24.632Z,103341.75
2023-02-06T13:17:16.537Z,103330.13
2023-02-06T13:19:42.899Z,103316.97
2023-02-06T13:22:09.197Z,103316.25
2023-02-06T13:24:41.067Z,103289.34
2023-02-06T13:27:07.549Z,103310.25
2023-02-06T13:29:48.140Z,103257.97
2023-02-06T13:32:22.544Z,103310.50
2023-02-06T13:34:48.837Z,103300.78
2023-02-06T13:37:37.316Z,103303.28
2023-02-06T13:40:21.955Z,103307.97
2023-02-06T13:43:17.255Z,103305.38
2023-02-06T13:46:00.008Z,103273.16
2023-02-06T13:48:57.529Z,103314.00
2023-02-06T13:51:59.384Z,103282.63
2023-02-06T13:54:44.568Z,103327.06
2023-02-06T13:57:27.985Z,103333.59
2023-02-06T14:00:02.851Z,103276.75
2023-02-06T14:02:39.121Z,103333.41
2023-02-06T14:05:11.049Z,103290.31
2023-02-06T14:07:50.504Z,103184.41
2023-02-06T14:10:27.980Z,103182.72
2023-02-06T14:13:03.202Z,103219.59
2023-02-06T14:15:50.402Z,103318.16
2023-02-06T14:18:27.006Z,103328.09
2023-02-06T14:21:18.347Z,103302.59
2023-02-06T14:23:50.442Z,103320.50
2023-02-06T14:26:47.333Z,103314.41
2023-02-06T14:29:49.692Z,103246.06
2023-02-06T14:32:36.037Z,103313.06
2023-02-06T14:35:36.701Z,103315.97
2023-02-06T14:38:38.538Z,103206.22
2023-02-06T14:41:05.135Z,103233.69
2023-02-06T14:43:36.993Z,103166.38
2023-02-06T14:46:08.674Z,103216.09
2023-02-06T14:48:55.150Z,103314.56
2023-02-06T14:51:28.536Z,103314.50
2023-02-06T14:53:58.135Z,103273.97
2023-02-06T14:56:30.383Z,103289.63
2023-02-06T14:59:07.411Z,103177.84
2023-02-06T15:01:33.868Z,103249.25
2023-02-06T15:04:18.566Z,103297.53
2023-02-06T15:06:57.246Z,103300.53
2023-02-06T15:09:28.824Z,103304.84
2023-02-06T15:11:58.670Z,103216.63
2023-02-06T15:14:33.756Z,103281.66
2023-02-06T15:17:02.558Z,103204.66
2023-02-06T15:19:31.628Z,103303.78
2023-02-06T15:22:01.340Z,103198.50
2023-02-06T15:24:45.581Z,103218.63
2023-02-06T15:27:27.824Z,103308.69
2023-02-06T15:29:55.344Z,103302.03
2023-02-06T15:32:29.825Z,103320.69
2023-02-06T15:34:57.381Z,103313.69
2023-02-06T15:37:35.334Z,103319.75
2023-02-06T15:40:08.934Z,103269.25
2023-02-06T15:42:36.508Z,103210.84
2023-02-06T15:45:03.533Z,103222.44
2023-02-06T15:47:30.742Z,103280.09
2023-02-06T15:50:00.310Z,103219.91
2023-02-06T15:52:43.067Z,103218.25
2023-02-06T15:55:30.125Z,103305.75
2023-02-06T15:57:58.328Z,103310.16
2023-02-06T16:00:31.710Z,103297.13
2023-02-06T16:03:03.718Z,103198.88
2023-02-06T16:05:40.641Z,103265.38
2023-02-06T16:08:16.078Z,103230.69
2023-02-06T16:10:43.932Z,103250.97
2023-02-06T16:13:15.990Z,103241.03
2023-02-06T16:16:20.918Z,103182.72
2023-02-06T16:18:48.849Z,103230.34
2023-02-06T16:21:18.351Z,103273.00
2023-02-06T16:24:00.134Z,103276.53
2023-02-06T16:26:29.638Z,103242.69
2023-02-06T16:29:24.486Z,103228.56
2023-02-06T16:32:17.327Z,103270.31
2023-02-06T16:34:45.965Z,103257.59
2023-02-06T16:37:15.226Z,103176.94
2023-02-06T16:39:43.243Z,103127.53
2023-02-06T16:42:22.765Z,103267.38
2023-02-06T16:44:57.516Z,103169.75
2023-02-06T16:47:24.606Z,103220.38
2023-02-06T16:54:13.566Z,103186.16
2023-02-06T16:56:45.081Z,103217.03
2023-02-06T16:59:25.907Z,103174.34
2023-02-06T17:01:52.264Z,103217.50
2023-02-06T17:04:19.023Z,103242.19
2023-02-06T17:06:45.566Z,103203.72
2023-02-06T17:09:13.866Z,103241.34
2023-02-06T17:11:40.317Z,103253.72
2023-02-06T17:14:06.640Z,103260.94
2023-02-06T17:16:33.719Z,103163.59
2023-02-06T17:19:00.172Z,103219.50
2023-02-06T17:21:29.589Z,103220.25
2023-02-06T17:23:56.002Z,103256.88
2023-02-06T17:26:22.954Z,103262.34
2023-02-06T17:28:50.594Z,103251.47
2023-02-06T17:31:17.730Z,103258.22
2023-02-06T17:33:44.282Z,103249.25
2023-02-06T17:36:17.410Z,103243.06
2023-02-06T17:38:44.293Z,103153.16
2023-02-06T17:41:10.701Z,103225.56
2023-02-06T17:43:37.458Z,103164.06
2023-02-06T17:46:05.699Z,103159.56
2023-02-06T17:48:36.699Z,103155.91
2023-02-06T17:51:05.323Z,103173.84
2023-02-06T17:53:34.496Z,103222.09
2023-02-06T17:56:09.660Z,103223.00
2023-02-06T17:58:36.022Z,103250.97
2023-02-06T18:01:02.447Z,103211.78
2023-02-06T18:03:28.870Z,103174.34
2023-02-06T18:06:02.029Z,103209.75
2023-02-06T18:08:29.203Z,103154.38
2023-02-06T18:10:56.144Z,103241.31
2023-02-06T18:13:24.257Z,103152.53
2023-02-06T18:15:56.032Z,103276.81
2023-02-06T18:18:24.751Z,103173.03
2023-02-06T18:20:52.191Z,103149.72
2023-02-06T18:23:21.425Z,103217.59
2023-02-06T18:25:47.877Z,103242.34
2023-02-06T18:28:14.945Z,103181.44
2023-02-06T18:30:41.883Z,103199.59
2023-02-06T18:33:08.888Z,103203.53
2023-02-06T18:35:40.279Z,103199.25
2023-02-06T18:38:09.657Z,103110.31
2023-02-06T18:40:40.748Z,103269.53
2023-02-06T18:43:07.694Z,103281.22
2023-02-06T18:45:37.146Z,103268.53
2023-02-06T18:48:05.660Z,103151.34
2023-02-06T18:50:34.083Z,103267.53
2023-02-06T18:53:00.465Z,103228.78
2023-02-06T18:55:29.255Z,103145.88
2023-02-06T18:57:56.481Z,103263.00
2023-02-06T19:00:23.812Z,103140.06
2023-02-06T19:02:50.478Z,103140.22
2023-02-06T19:05:17.061Z,103246.97
2023-02-06T19:07:43.621Z,103250.44
2023-02-06T19:10:12.848Z,103239.66
2023-02-06T19:12:39.295Z,103134.16
2023-02-06T19:15:05.981Z,103211.19
2023-02-06T19:17:32.961Z,103233.97
2023-02-06T19:19:59.528Z,103184.97
2023-02-06T19:22:26.394Z,103171.06
2023-02-06T19:24:53.433Z,103229.50
2023-02-06T19:27:21.194Z,103194.94
2023-02-06T19:29:48.181Z,103256.50
2023-02-06T19:32:14.765Z,103171.88
2023-02-06T19:34:41.931Z,103148.03
2023-02-06T19:37:10.017Z,103209.53
2023-02-06T19:39:37.936Z,103168.38
2023-02-06T19:42:06.701Z,103163.00
2023-02-06T19:44:33.350Z,103183.34
2023-02-06T19:47:00.216Z,103176.13
2023-02-06T19:49:27.530Z,103266.44
2023-02-06T19:51:53.960Z,103157.94
2023-02-06T19:54:20.326Z,103148.19
2023-02-06T19:56:47.727Z,103263.09
2023-02-06T19:59:22.762Z,103216.44
2023-02-06T20:01:53.409Z,103251.94
2023-02-06T20:04:22.636Z,103269.97
2023-02-06T20:06:51.008Z,103173.16
2023-02-06T20:09:19.996Z,103268.69
2023-02-06T20:11:48.179Z,103242.88
2023-02-06T20:14:15.039Z,103201.13
2023-02-06T20:16:43.077Z,103284.53
2023-02-06T20:19:18.563Z,103240.38
2023-02-06T20:21:48.368Z,103185.09
2023-02-06T20:24:18.456Z,103241.31
2023-02-06T20:26:45.564Z,103243.84
2023-02-06T20:29:20.543Z,103224.66
2023-02-06T20:31:47.354Z,103134.06
2023-02-06T20:34:20.781Z,103193.28
2023-02-06T20:36:48.306Z,103022.94
2023-02-06T20:39:16.180Z,103214.06
2023-02-06T20:41:43.279Z,103230.75
2023-02-06T20:44:11.370Z,103225.34
2023-02-06T20:46:38.167Z,103235.28
2023-02-06T20:49:09.144Z,103260.16
2023-02-06T20:51:35.695Z,103239.97
2023-02-06T20:54:02.174Z,103259.53
2023-02-06T20:56:28.660Z,103245.34
2023-02-06T20:58:56.215Z,103220.16
2023-02-06T21:01:25.928Z,103138.53
2023-02-06T21:03:55.898Z,103137.63
2023-02-06T21:06:22.850Z,103149.03
2023-02-06T21:08:50.168Z,103246.59
2023-02-06T21:11:17.477Z,103246.22
2023-02-06T21:13:43.831Z,103232.06
2023-02-06T21:16:13.448Z,103215.72
2023-02-06T21:18:42.453Z,103242.31
2023-02-06T21:21:11.736Z,103173.91
2023-02-06T21:23:39.970Z,103115.44
2023-02-06T21:26:07.601Z,103231.94
2023-02-06T21:28:35.932Z,103217.56
2023-02-06T21:31:09.404Z,103215.97
2023-02-06T21:33:36.833Z,103226.88
2023-02-06T21:36:06.948Z,103112.34
2023-02-06T21:38:35.333Z,103222.56
2023-02-06T21:41:19.887Z,103077.75
2023-02-06T21:43:46.341Z,103225.94
2023-02-06T21:46:13.527Z,103116.88
2023-02-06T21:48:41.536Z,103208.84
2023-02-06T21:51:11.408Z,103231.16
2023-02-06T21:53:38.799Z,103212.53
2023-02-06T21:56:08.039Z,103215.09
2023-02-06T21:58:36.475Z,103234.97
2023-02-06T22:01:08.516Z,103233.19
2023-02-06T22:03:35.812Z,103194.97
2023-02-06T22:06:08.604Z,103232.38
2023-02-06T22:08:36.888Z,103219.78
2023-02-06T22:11:30.629Z,103152.56
2023-02-06T22:13:59.100Z,103206.84
2023-02-06T22:16:26.563Z,103204.69
2023-02-06T22:18:53.868Z,103217.09
2023-02-06T22:21:22.894Z,103189.88
2023-02-06T22:23:52.172Z,103185.16
2023-02-06T22:26:21.013Z,103196.81
2023-02-06T22:28:48.163Z,103210.91
2023-02-06T22:31:24.272Z,103139.34
2023-02-06T22:33:51.129Z,103196.47
2023-02-06T22:36:20.404Z,103155.88
2023-02-06T22:38:47.959Z,103203.56
2023-02-06T22:41:16.868Z,103180.16
2023-02-06T22:43:45.123Z,103184.47
2023-02-06T22:46:19.612Z,103160.53
2023-02-06T22:48:46.439Z,103227.34
2023-02-06T22:51:13.078Z,103204.22
2023-02-06T22:53:40.493Z,103225.38
2023-02-06T22:56:27.321Z,103184.72
2023-02-06T22:58:55.764Z,103165.47
2023-02-06T23:01:24.894Z,103231.16
2023-02-06T23:03:53.188Z,103174.34
2023-02-06T23:06:20.231Z,103245.72
2023-02-06T23:08:47.108Z,103234.59
2023-02-06T23:11:15.009Z,103234.56
2023-02-06T23:13:41.852Z,103238.00
2023-02-06T23:16:09.520Z,103240.53
2023-02-06T23:18:37.021Z,103206.97
2023-02-06T23:21:12.452Z,103245.22
2023-02-06T23:23:40.439Z,103219.13
2023-02-06T23:26:10.318Z,103114.25
2023-02-06T23:28:37.953Z,103083.81
2023-02-06T23:31:05.800Z,103246.69
2023-02-06T23:33:32.894Z,103134.91
2023-02-06T23:36:19.581Z,103217.22
2023-02-06T23:38:47.810Z,103202.38
2023-02-06T23:41:20.252Z,103204.28
2023-02-06T23:43:51.727Z,103232.22
2023-02-06T23:46:20.122Z,103212.13
2023-02-06T23:48:48.167Z,103121.38
2023-02-06T23:51:15.953Z,103121.38
2023-02-06T23:53:42.616Z,103227.50
2023-02-06T23:56:14.804Z,103242.91
2023-02-06T23:58:41.539Z,103180.88
